Point Mugu Naval Air Station (Naval Base Ventura Co)
KNTD : now visible

Airfield :











YOU CAN JOIN US ON...

 
LOGIN :

Register | Disclaimer

   EN    FR    IT 

 









Legend :    VFR   Marginal VFR   IFR   Intensive IFR   Very Intensive IFR
Visi :
Ceiling :
>= 8 km
>= 3000ft
5 to 8 km
1000 to 3000 ft
1500m to 5 km
500 to 1000 ft
800 to 1500m
200 to 500 ft
< 800m
< 200 ft
Symbols :   Thunderstorms  Fog  Heavy snow  Heavy precipitations  Wind > 20 kt






- Airport Elevation : 13 ft


KNTD - Point Mugu Naval Air Station (Naval Base Ventura Co)

CURRENT METAR :
  • 062252Z 21009KT 10SM FEW020 SCT060 SCT200 SCT260 16/10 A2995 RMK AO2 SLP142 T01560100 $

EXPIRED METARs :
  • 062152Z 23007KT 10SM FEW020 SCT060 SCT200 SCT260 16/11 A2994 RMK AO2 SLP141 T01560106 $
  • 062052Z 20009KT 10SM FEW025 FEW060 SCT095 15/11 A2994 RMK AO2 SLP139 60000 T01500106 51006 $

TAF TAF KNTD
Valid from the 06 at 23:00 until the 07 at 23:00 UTC


0623/0723 23009KT 9999 VCSH FEW020 SCT065 SCT260 520809 QNH2992INS
FM070300 VRB05KT 9999 VCSH SCT020 BKN065 SCT260 500000 QNH2995INS
TEMPO 0705/0711 9000 -SHRA BKN020
FM071800 19008KT 9999 FEW025 SCT065 620659 QNH2996INS
BECMG 0721/0723 23011KT 9999 VCSH FEW025 BKN065 620659 QNH2995INS AUTOMATED SENSOR METWATCH 0706 TIL 0713 T09/0714Z T16/0720Z FS30101



MET'MAP, your aeronautical weather chart ! - Copyright ORBIFLY December 2007 - Disclaimer

ORBIFLY MET'MAP TEAM :

Programming & Development : Alexandra Zaïnal
Concept & original design : Baudouin d'Aumeries
Assistance for programming : Marc-Olivier Méhu
Technical & hardware support : Manuel Goepfert

Contact : metmap@orbifly.com




SOURCES & CREDITS :

   NOAA       Earth
Advisory